Flight Track Log - Related Links

Times and Time Zones

All times are in EDT time to prevent confusion due to time zone crossing. See the UPS1275 flight status page for this flight to view local times or setup timezone preferences in your user account.

Time Position Orientation Groundspeed Altitude Reporting Facility
EDT Latitude Longitude Course Direction KTS MPH feet Rate Location/Type
Mon 10:15:42 PM 35.8250 -78.9050 270° West 277 319  Level FlightAware ADS-B
Mon 10:16:07 PM 35.8250 -78.9480 270° West 286 329 5,254 Level FlightAware ADS-B
Mon 10:16:22 PM 35.8250 -78.9740 270° West 293 337 6,075 Level FlightAware ADS-B
Mon 10:16:52 PM 35.8250 -79.0290 270° West 363 418 6,703 Level FlightAware ADS-B
Mon 10:17:12 PM 35.8260 -79.0730 272° West 399 459 8,452 Level FlightAware ADS-B
Mon 10:17:37 PM 35.8260 -79.1230 270° West 399 459 10,232 Level FlightAware ADS-B
Mon 10:18:47 PM 35.8317 -79.2942 270° West 409 471 16,200 6,483 Climbing Washington Center
Mon 10:21:08 PM 35.7942 -79.6533 263° West 464 534 22,800 2,328 Climbing Atlanta Center
Mon 10:22:08 PM 35.7689 -79.8183 259° West 469 540 24,000 1,950 Climbing Atlanta Center
Mon 10:23:08 PM 35.7661 -79.9875 269° West 483 556 26,700 3,500 Climbing Atlanta Center
Mon 10:24:08 PM 35.8278 -80.1558 294° West 481 554 31,000 3,500 Climbing Atlanta Center
Mon 10:25:08 PM 35.8719 -80.2947 291° West 481 554 33,700 1,500 Climbing Atlanta Center
Mon 10:26:08 PM 35.9222 -80.4464 292° West 481 554 34,000 150 Climbing Atlanta Center
Mon 10:27:08 PM 35.9728 -80.6058 291° West 476 548 34,000  Level Atlanta Center
Mon 10:28:08 PM 36.0206 -80.7553 292° West 471 542 34,000  Level Atlanta Center
Mon 10:29:08 PM 36.0683 -80.9047 292° West 466 536 34,000  Level Atlanta Center
Mon 10:30:08 PM 36.1222 -81.0544 294° West 471 542 34,000  Level Atlanta Center
Mon 10:31:08 PM 36.1817 -81.1961 298° West 471 542 34,000 14 Level Atlanta Center
Mon 10:37:05 PM 36.5346 -82.0571 298° West 471 542 34,100 15 Climbing FlightAware ADS-B
Mon 10:37:36 PM 36.5643 -82.1304 297° West 468 539 34,100 -87 Level FlightAware ADS-B
Mon 10:38:14 PM 36.6007 -82.2205 297° West 464 534 34,000 -88 Descending FlightAware ADS-B
Mon 10:38:44 PM 36.6300 -82.2920 297° West 463 533 34,000  Level FlightAware ADS-B
Mon 10:39:55 PM 36.6981 -82.4630 296° West 466 536 34,000  Level FlightAware ADS-B
Mon 10:40:28 PM 36.7298 -82.5424 296° West 467 537 34,000  Level FlightAware ADS-B
Mon 10:40:59 PM 36.7589 -82.6151 297° West 467 537 34,000 87 Level FlightAware ADS-B
Mon 10:41:37 PM 36.7961 -82.7092 296° West 469 540 34,100 -170 Climbing FlightAware ADS-B
Mon 10:43:20 PM 36.8936 -82.9565 296° West 469 540 33,600 -444 Descending FlightAware ADS-B
Mon 10:43:52 PM 36.9237 -83.0321 296° West 465 535 33,100 -968 Descending FlightAware ADS-B
Mon 10:44:22 PM 36.9525 -83.1060 296° West 472 543 32,600 -971 Descending FlightAware ADS-B
Mon 10:45:00 PM 36.9889 -83.2002 296° West 474 545 32,000 -514 Descending FlightAware ADS-B
Mon 10:45:32 PM 37.0189 -83.2773 296° West 466 536 32,000  Level FlightAware ADS-B
Mon 10:46:02 PM 37.0476 -83.3500 296° West 469 540 32,000  Level FlightAware ADS-B
Mon 10:46:33 PM 37.0765 -83.4243 296° West 473 544 32,000  Level FlightAware ADS-B
Mon 10:47:04 PM 37.1066 -83.5024 296° West 476 548 32,000  Level FlightAware ADS-B
Mon 10:47:34 PM 37.1353 -83.5767 296° West 473 544 32,000 -590 Level FlightAware ADS-B
Mon 10:48:05 PM 37.1645 -83.6520 296° West 470 541 31,400 -1,217 Descending FlightAware ADS-B
Mon 10:48:37 PM 37.1900 -83.7190 296° West 30,800 -1,263 Descending FlightAware ADS-B
Mon 10:48:43 PM 37.2006 -83.7463 296° West 473 544 30,600 -1,250 Descending FlightAware ADS-B
Mon 10:49:25 PM 37.2398 -83.8491 296° West 465 535 29,800 -128 Descending FlightAware ADS-B
Mon 10:50:17 PM 37.2690 -83.9310 294° West 471 542 30,400 -1,684 Climbing FlightAware ADS-B
Mon 10:50:22 PM 37.2922 -83.9859 298° West 464 534 28,200 -6,171 Descending FlightAware ADS-B
Mon 10:50:52 PM 37.3195 -84.0584 295° West 451 519 26,800 -2,700 Descending FlightAware ADS-B
Mon 10:51:22 PM 37.3466 -84.1292 296° West 442 509 25,500 -2,687 Descending FlightAware ADS-B
Mon 10:51:59 PM 37.3785 -84.2134 296° West 441 507 23,800 -2,667 Descending FlightAware ADS-B
Mon 10:52:34 PM 37.4079 -84.2911 295° West 425 489 22,300 -2,545 Descending FlightAware ADS-B
Mon 10:53:05 PM 37.4336 -84.3603 295° West 424 488 21,000 -2,500 Descending FlightAware ADS-B
Mon 10:53:34 PM 37.4556 -84.4189 295° West 424 488 19,800 -2,467 Descending Indianapolis Center
Mon 10:54:35 PM 37.5022 -84.5475 295° West 407 468 17,300 -2,508 Descending Indianapolis Center
Mon 10:55:36 PM 37.5503 -84.6736 296° West 400 460 14,700 -2,410 Descending Indianapolis Center
Mon 10:56:37 PM 37.5956 -84.7967 295° West 389 448 12,400 -1,672 Descending Indianapolis Center
Mon 10:57:38 PM 37.6369 -84.9086 295° West 354 407 11,300 -836 Descending Indianapolis Center
Mon 10:58:39 PM 37.6822 -84.9919 304° West 301 346 10,700 -590 Descending Indianapolis Center
Mon 10:59:40 PM 37.7381 -85.0689 313° West 293 337 10,100 -706 Descending Indianapolis Center
Mon 11:05:27 PM 38.0510 -85.5030 313° West 281 323 5,900 -723 Descending FlightAware ADS-B
Mon 11:05:37 PM 38.0620 -85.5200 309° West 279 321 5,800 -750 Descending FlightAware ADS-B
Mon 11:06:07 PM 38.0890 -85.5570 313° West 281 323 5,400 -800 Descending FlightAware ADS-B
Mon 11:06:37 PM 38.1200 -85.5860 324° Northwest 289 333 5,000 -436 Descending FlightAware ADS-B
Mon 11:07:02 PM 38.1510 -85.5990 342° North 287 330 5,000  Level FlightAware ADS-B
Mon 11:07:17 PM 38.1710 -85.6100 337° Northwest 284 327 5,000 -267 Level FlightAware ADS-B
Mon 11:07:47 PM 38.2080 -85.6280 339° North 284 327 4,800 -655 Descending FlightAware ADS-B
Mon 11:08:12 PM 38.2390 -85.6370 347° North 289 333 4,400 -1,200 Descending FlightAware ADS-B
Mon 11:08:42 PM 38.2770 -85.6500 345° North 287 330 3,700 -1,350 Descending FlightAware ADS-B
Mon 11:08:52 PM 38.2900 -85.6550 343° North 282 325 3,500 -1,050 Descending FlightAware ADS-B
Mon 11:09:22 PM 38.3260 -85.6690 343° North 257 296 3,000 -667 Descending FlightAware ADS-B
Mon 11:09:37 PM 38.3400 -85.6810 326° Northwest 223 257 3,000  Level FlightAware ADS-B
Mon 11:09:52 PM 38.3450 -85.6950 294° West 199 229 3,000 -600 Level FlightAware ADS-B
Mon 11:10:17 PM 38.3450 -85.7250 270° West 185 213 2,600 -600 Descending FlightAware ADS-B
Mon 11:10:32 PM 38.3440 -85.7410 265° West 183 211 2,600 -200 Level FlightAware ADS-B
Mon 11:10:47 PM 38.3390 -85.7550 246° West 171 197 2,500 -200 Descending FlightAware ADS-B
Mon 11:11:02 PM 38.3290 -85.7610 205° Southwest 168 193 2,500  Level FlightAware ADS-B
Mon 11:11:27 PM 38.3090 -85.7640 187° South 169 194 2,500  Level FlightAware ADS-B
Mon 11:11:42 PM 38.2990 -85.7650 184° South 167 192 2,500 -133 Level FlightAware ADS-B
Mon 11:12:12 PM 38.2790 -85.7620 173° South 129 148 2,400 -436 Descending FlightAware ADS-B
Mon 11:12:37 PM 38.2640 -85.7580 168° South 129 148 2,100 -750 Descending FlightAware ADS-B
Mon 11:12:52 PM 38.2560 -85.7550 164° South 126 145 1,900 -750 Descending FlightAware ADS-B
Mon 11:13:17 PM 38.2410 -85.7500 165° South 125 144 1,600 -600 Descending FlightAware ADS-B
Mon 11:13:32 PM 38.2330 -85.7470 164° South 125 144 1,500 -667 Descending FlightAware ADS-B
Mon 11:14:02 PM 38.2160 -85.7410 165° South 130 150 1,100 -700 Descending FlightAware ADS-B
Mon 11:14:32 PM 38.1980 -85.7350 165° South 137 158 800 -655 Descending FlightAware ADS-B
Mon 11:14:57 PM 38.1830 -85.7300 165° South 136 157 500 -720 Descending FlightAware ADS-B

Login

Don't have an account? Register now (free) for customized features, flight alerts, and more!